Time;durP1;ratioP1;P1;durP2;ratioP2;P2;SDS_P1;SDS_P2;PMS_P1;PMS_P2;Temp;Humidity;BMP_temperature;BMP_pressure;BME280_temperature;BME280_humidity;BME280_pressure;Samples;Min_cycle;Max_cycle;Signal;HPM_P1;HPM_P2
2023/05/27 00:02:24;;;;;;;7.30;2.50;;;3.90;99.90;;;;;;5054826;28;20131;-29
2023/05/27 00:04:50;;;;;;;13.05;3.58;;;3.90;99.90;;;;;;5055758;28;20110;-29
2023/05/27 00:07:16;;;;;;;10.35;3.08;;;3.90;99.90;;;;;;5054528;28;20127;-29
2023/05/27 00:09:41;;;;;;;5.40;1.95;;;3.90;99.90;;;;;;5055296;28;20148;-28
2023/05/27 00:12:07;;;;;;;4.07;1.73;;;3.80;99.90;;;;;;5055655;28;20049;-28
2023/05/27 00:14:33;;;;;;;8.60;1.77;;;3.80;99.90;;;;;;5055619;28;20049;-29
2023/05/27 00:17:01;;;;;;;2.17;1.23;;;3.70;99.90;;;;;;5055251;28;20551;-28
2023/05/27 00:19:29;;;;;;;11.03;1.57;;;3.60;99.90;;;;;;5055492;28;20056;-28
2023/05/27 00:21:55;;;;;;;7.07;1.43;;;3.60;99.90;;;;;;5055477;28;20081;-28
2023/05/27 00:24:21;;;;;;;7.40;1.30;;;3.60;99.90;;;;;;5054271;28;20064;-28
2023/05/27 00:26:47;;;;;;;9.70;2.30;;;3.50;99.90;;;;;;5054410;28;20053;-29
2023/05/27 00:29:13;;;;;;;10.53;2.30;;;3.40;99.90;;;;;;5055311;28;20146;-28
2023/05/27 00:31:39;;;;;;;6.77;3.13;;;3.40;99.90;;;;;;5021216;28;20049;-28
2023/05/27 00:34:05;;;;;;;8.60;2.13;;;3.50;99.90;;;;;;5054045;28;20063;-28
2023/05/27 00:36:33;;;;;;;10.33;2.40;;;3.50;99.90;;;;;;5037896;28;20040;-28
2023/05/27 00:39:00;;;;;;;9.83;2.57;;;3.80;99.90;;;;;;5055104;28;20102;-28
2023/05/27 00:41:26;;;;;;;7.53;2.37;;;3.50;99.90;;;;;;5055079;28;20048;-28
2023/05/27 00:43:53;;;;;;;5.43;1.97;;;3.50;99.90;;;;;;5037481;28;20052;-28
2023/05/27 00:46:19;;;;;;;10.40;2.40;;;3.50;99.90;;;;;;5054993;28;20073;-28
2023/05/27 00:48:46;;;;;;;6.57;2.37;;;3.40;99.90;;;;;;5054943;28;20055;-28
2023/05/27 00:51:12;;;;;;;11.67;2.77;;;3.40;99.90;;;;;;5053936;28;20051;-28
2023/05/27 00:53:42;;;;;;;9.83;3.40;;;3.30;99.90;;;;;;5054829;28;20041;-28
2023/05/27 00:56:09;;;;;;;14.17;3.70;;;3.30;99.90;;;;;;5053925;28;20084;-28
2023/05/27 00:58:36;;;;;;;17.33;3.70;;;3.20;99.90;;;;;;5054776;28;20133;-28
2023/05/27 01:01:03;;;;;;;16.23;4.03;;;3.30;99.90;;;;;;5053737;28;20049;-28
2023/05/27 01:03:32;;;;;;;24.97;5.47;;;3.40;99.90;;;;;;5054640;28;20056;-28
2023/05/27 01:06:14;;;;;;;26.15;7.43;;;3.30;99.90;;;;;;5037269;28;20041;-27
2023/05/27 01:08:51;;;;;;;26.50;6.30;;;3.50;99.90;;;;;;5055299;28;20100;-29
2023/05/27 01:11:21;;;;;;;31.27;7.63;;;3.50;99.90;;;;;;5055171;28;20130;-28
2023/05/27 01:13:55;;;;;;;28.50;6.80;;;3.70;99.90;;;;;;5055062;28;20507;-28
2023/05/27 01:16:21;;;;;;;;;;;3.70;99.90;;;;;;5054754;28;20142;-28
2023/05/27 01:18:49;;;;;;;27.13;5.90;;;3.80;99.90;;;;;;5053162;28;19943;-28
2023/05/27 01:21:19;;;;;;;27.03;7.37;;;3.80;99.90;;;;;;5054866;28;20041;-28
2023/05/27 01:23:49;;;;;;;25.33;7.40;;;3.80;99.90;;;;;;5053329;28;20128;-27
2023/05/27 01:26:15;;;;;;;32.00;9.27;;;4.00;99.90;;;;;;5054208;28;20048;-27
2023/05/27 01:28:41;;;;;;;32.03;9.17;;;3.90;99.90;;;;;;5053001;28;20044;-28
2023/05/27 01:31:21;;;;;;;29.50;7.53;;;4.00;99.90;;;;;;5054181;28;20087;-28
2023/05/27 01:33:58;;;;;;;28.33;7.15;;;4.00;99.90;;;;;;5054684;28;20041;-28
2023/05/27 01:36:27;;;;;;;37.60;7.27;;;4.10;99.90;;;;;;5054291;28;20048;-28
2023/05/27 01:38:56;;;;;;;28.93;7.70;;;4.10;99.90;;;;;;5053971;28;20058;-27
2023/05/27 01:41:23;;;;;;;35.23;7.03;;;4.20;99.90;;;;;;5053043;28;20049;-27
2023/05/27 01:43:49;;;;;;;26.13;8.23;;;4.10;99.90;;;;;;5053302;28;20087;-28
2023/05/27 01:46:15;;;;;;;35.70;6.87;;;4.30;99.90;;;;;;5053938;28;20059;-27
2023/05/27 01:48:41;;;;;;;35.30;7.20;;;4.30;99.90;;;;;;5053880;28;20080;-27
2023/05/27 01:51:07;;;;;;;25.37;7.40;;;4.30;99.90;;;;;;5054416;28;20053;-27
2023/05/27 01:53:34;;;;;;;26.47;7.37;;;4.50;99.90;;;;;;5054353;28;20469;-27
2023/05/27 01:56:00;;;;;;;27.93;8.33;;;4.40;99.90;;;;;;5035881;28;20041;-28
2023/05/27 01:58:26;;;;;;;26.30;7.70;;;4.50;99.90;;;;;;5053090;28;20121;-27
2023/05/27 02:00:52;;;;;;;23.27;8.47;;;4.60;99.90;;;;;;5053725;28;20044;-28
2023/05/27 02:03:17;;;;;;;26.70;7.67;;;4.60;99.90;;;;;;5052487;28;20585;-28
2023/05/27 02:05:44;;;;;;;36.70;7.43;;;4.60;99.90;;;;;;5053895;28;20052;-27
2023/05/27 02:08:10;;;;;;;25.20;7.00;;;4.40;99.90;;;;;;5053116;28;20379;-28
2023/05/27 02:10:36;;;;;;;27.83;6.27;;;4.30;99.90;;;;;;5053057;28;20148;-28
2023/05/27 02:13:02;;;;;;;25.77;7.83;;;4.20;99.90;;;;;;5053561;28;20480;-28
2023/05/27 02:15:28;;;;;;;34.37;7.53;;;4.10;99.90;;;;;;5053458;28;20041;-27
2023/05/27 02:17:55;;;;;;;24.43;7.43;;;4.10;99.90;;;;;;5052326;28;20055;-27
2023/05/27 02:20:22;;;;;;;14.47;5.20;;;4.10;99.90;;;;;;5052485;28;20055;-28
2023/05/27 02:22:50;;;;;;;14.97;4.90;;;4.00;99.90;;;;;;5052335;28;20098;-27
2023/05/27 02:25:16;;;;;;;17.00;5.90;;;3.90;99.90;;;;;;5053466;28;20042;-27
2023/05/27 02:27:43;;;;;;;16.13;5.40;;;3.80;99.90;;;;;;5053358;28;20045;-27
2023/05/27 02:30:10;;;;;;;24.47;5.97;;;3.80;99.90;;;;;;5052268;28;20492;-27
2023/05/27 02:32:36;;;;;;;17.53;6.23;;;3.80;99.90;;;;;;5052177;28;20105;-27
2023/05/27 02:35:02;;;;;;;14.40;5.70;;;3.90;99.90;;;;;;5053514;28;20049;-27
2023/05/27 02:37:28;;;;;;;19.27;5.87;;;3.90;99.90;;;;;;5052365;28;20045;-28
2023/05/27 02:39:55;;;;;;;29.80;6.77;;;4.00;99.90;;;;;;5053325;28;20623;-27
2023/05/27 02:42:21;;;;;;;26.57;7.37;;;4.20;99.90;;;;;;5052581;28;20056;-28
2023/05/27 02:44:46;;;;;;;32.77;7.87;;;4.40;99.90;;;;;;5053261;28;20605;-27
2023/05/27 02:47:12;;;;;;;30.20;7.30;;;4.50;99.90;;;;;;5051953;28;20045;-27
2023/05/27 02:49:38;;;;;;;33.77;6.93;;;4.60;99.90;;;;;;5053207;28;20045;-27
2023/05/27 02:52:04;;;;;;;28.20;7.97;;;5.00;99.90;;;;;;5052230;28;20059;-27
2023/05/27 02:54:29;;;;;;;36.30;8.67;;;4.80;99.90;;;;;;5053147;28;20396;-27
2023/05/27 02:56:55;;;;;;;36.83;8.57;;;4.80;99.90;;;;;;5053587;28;20048;-28
2023/05/27 02:59:21;;;;;;;36.20;9.07;;;5.00;99.90;;;;;;5053081;28;20092;-27
2023/05/27 03:01:46;;;;;;;37.57;9.53;;;5.10;99.90;;;;;;5053058;28;20064;-27
2023/05/27 03:04:12;;;;;;;29.33;9.23;;;5.20;99.90;;;;;;5053066;28;20396;-27
2023/05/27 03:06:38;;;;;;;34.13;8.73;;;5.30;99.90;;;;;;5053842;28;20041;-27
2023/05/27 03:09:04;;;;;;;34.07;9.03;;;5.30;99.90;;;;;;5052759;28;20049;-27
2023/05/27 03:11:29;;;;;;;28.53;9.33;;;5.30;99.90;;;;;;5053689;28;20142;-27
2023/05/27 03:13:55;;;;;;;34.03;8.67;;;5.40;99.90;;;;;;5053765;28;20064;-27
2023/05/27 03:16:22;;;;;;;33.93;7.53;;;5.40;99.90;;;;;;5052877;28;20494;-27
2023/05/27 03:18:48;;;;;;;29.53;8.17;;;5.50;99.90;;;;;;5053842;28;20107;-27
2023/05/27 03:21:14;;;;;;;15.60;6.70;;;5.40;99.90;;;;;;5056609;28;20045;-27
2023/05/27 03:23:40;;;;;;;23.47;8.27;;;5.30;99.90;;;;;;5056248;28;20041;-27
2023/05/27 03:26:05;;;;;;;25.63;7.67;;;5.40;99.90;;;;;;5056536;28;20058;-28
2023/05/27 03:28:31;;;;;;;22.20;6.90;;;5.30;99.90;;;;;;5056525;28;20055;-27
2023/05/27 03:30:57;;;;;;;21.17;7.20;;;5.40;99.90;;;;;;5056696;28;20472;-27
2023/05/27 03:33:23;;;;;;;23.33;7.07;;;5.40;99.90;;;;;;5055788;28;20045;-27
2023/05/27 03:35:49;;;;;;;24.25;6.80;;;5.40;99.90;;;;;;5056606;28;20049;-27
2023/05/27 03:38:15;;;;;;;31.10;6.95;;;5.30;99.90;;;;;;5055727;28;20132;-27
2023/05/27 03:40:41;;;;;;;19.35;6.63;;;5.40;99.90;;;;;;5056533;28;20120;-28
2023/05/27 03:43:07;;;;;;;18.15;6.53;;;5.40;99.90;;;;;;5056213;28;20081;-27
2023/05/27 03:45:32;;;;;;;20.80;6.93;;;5.40;99.90;;;;;;5055005;28;20388;-28
2023/05/27 03:47:58;;;;;;;20.80;5.85;;;5.40;99.90;;;;;;5054939;28;20067;-27
2023/05/27 03:50:24;;;;;;;19.90;5.38;;;5.40;99.90;;;;;;5055444;28;20049;-27
2023/05/27 03:52:50;;;;;;;22.08;7.18;;;5.50;99.90;;;;;;5056022;28;20041;-27
2023/05/27 03:55:16;;;;;;;30.90;7.45;;;5.70;99.90;;;;;;5054619;28;20041;-28
2023/05/27 03:57:43;;;;;;;22.13;6.60;;;5.80;99.90;;;;;;5021982;28;20053;-27
2023/05/27 04:00:11;;;;;;;33.72;7.30;;;6.00;99.90;;;;;;5055885;28;20080;-28
2023/05/27 04:02:38;;;;;;;21.48;6.90;;;6.10;99.90;;;;;;5039395;28;20092;-28
2023/05/27 04:05:05;;;;;;;13.80;5.60;;;6.20;99.90;;;;;;5056086;28;20400;-29
2023/05/27 04:07:32;;;;;;;17.42;5.13;;;6.20;99.90;;;;;;5056022;28;20040;-27
2023/05/27 04:09:58;;;;;;;14.30;5.35;;;6.20;99.90;;;;;;5055596;28;20523;-27
2023/05/27 04:12:24;;;;;;;16.10;4.97;;;6.20;99.90;;;;;;5055664;28;20203;-28
2023/05/27 04:14:50;;;;;;;14.93;5.32;;;6.30;99.90;;;;;;5055584;28;20127;-28
2023/05/27 04:17:17;;;;;;;17.15;4.90;;;6.30;99.90;;;;;;5054409;28;20419;-27
2023/05/27 04:19:43;;;;;;;15.45;5.95;;;6.40;99.90;;;;;;5055519;28;20056;-28
2023/05/27 04:22:09;;;;;;;20.63;5.55;;;6.40;99.90;;;;;;5055540;28;20084;-28
2023/05/27 04:24:34;;;;;;;20.40;5.35;;;6.50;99.90;;;;;;5055476;28;20087;-28
2023/05/27 04:27:02;;;;;;;10.45;4.25;;;6.50;99.90;;;;;;5054717;28;20055;-27
2023/05/27 04:29:28;;;;;;;16.02;4.75;;;6.50;99.90;;;;;;5054768;28;20537;-27
2023/05/27 04:31:56;;;;;;;16.58;5.00;;;6.50;99.90;;;;;;5054074;28;20496;-28
2023/05/27 04:34:22;;;;;;;13.00;4.65;;;6.60;99.90;;;;;;5037692;28;20488;-28
2023/05/27 04:36:49;;;;;;;14.30;5.50;;;6.60;99.90;;;;;;5054027;28;20070;-27
2023/05/27 04:39:16;;;;;;;11.95;4.20;;;6.60;99.90;;;;;;5055686;28;20084;-27
2023/05/27 04:41:42;;;;;;;14.88;4.32;;;6.50;99.90;;;;;;5054534;28;20053;-28
2023/05/27 04:44:08;;;;;;;11.18;4.00;;;6.40;99.90;;;;;;5055041;28;20495;-28
2023/05/27 04:46:34;;;;;;;18.63;4.60;;;6.30;99.90;;;;;;5055547;28;20081;-27
2023/05/27 04:49:00;;;;;;;18.83;5.15;;;6.30;99.90;;;;;;5055524;28;20115;-29
2023/05/27 04:51:26;;;;;;;17.02;5.10;;;6.40;99.90;;;;;;5054760;28;20045;-28
2023/05/27 04:53:54;;;;;;;19.92;5.93;;;6.40;99.90;;;;;;5053919;28;20481;-27
2023/05/27 04:56:19;;;;;;;19.52;5.70;;;6.50;99.90;;;;;;5054743;28;20049;-27
2023/05/27 04:58:49;;;;;;;18.60;5.53;;;6.60;99.90;;;;;;5054802;28;20052;-27
2023/05/27 05:01:20;;;;;;;24.30;6.22;;;6.70;99.90;;;;;;5055032;28;20135;-27
2023/05/27 05:04:02;;;;;;;21.65;6.18;;;6.70;99.90;;;;;;5054743;28;20118;-28
2023/05/27 05:06:28;;;;;;;21.50;7.22;;;6.80;99.90;;;;;;5054235;28;20041;-28
2023/05/27 05:08:54;;;;;;;17.00;6.13;;;6.90;99.90;;;;;;5054052;28;20131;-27
2023/05/27 05:11:21;;;;;;;24.77;8.93;;;7.10;99.90;;;;;;5055737;28;20512;-28
2023/05/27 05:13:47;;;;;;;28.58;9.05;;;7.30;99.90;;;;;;5054463;28;20055;-28
2023/05/27 05:16:12;;;;;;;25.50;8.82;;;7.60;99.90;;;;;;5055172;28;20044;-28
2023/05/27 05:18:38;;;;;;;29.70;8.02;;;7.80;99.90;;;;;;5054084;28;20052;-28
2023/05/27 05:21:04;;;;;;;25.77;7.55;;;8.10;99.90;;;;;;5054348;28;20132;-28
2023/05/27 05:23:30;;;;;;;28.63;8.98;;;8.30;99.90;;;;;;5053200;28;20053;-28
2023/05/27 05:25:58;;;;;;;29.42;8.30;;;8.60;99.90;;;;;;5053599;28;20064;-29
2023/05/27 05:28:24;;;;;;;23.08;7.43;;;8.80;99.90;;;;;;5055158;28;20061;-29
2023/05/27 05:30:50;;;;;;;24.02;7.18;;;9.00;99.90;;;;;;5053055;28;20136;-28
2023/05/27 05:33:15;;;;;;;24.70;6.80;;;9.20;99.90;;;;;;5036350;28;20194;-28
2023/05/27 05:35:41;;;;;;;27.50;6.93;;;9.40;99.90;;;;;;5053993;28;20560;-28
2023/05/27 05:38:07;;;;;;;23.05;5.65;;;9.60;99.90;;;;;;5054034;28;20098;-27
2023/05/27 05:40:32;;;;;;;19.55;5.70;;;9.90;99.90;;;;;;5054016;28;20084;-29
2023/05/27 05:42:58;;;;;;;17.33;5.10;;;10.10;99.90;;;;;;5053591;28;20052;-28
2023/05/27 05:45:25;;;;;;;23.25;5.30;;;10.60;99.90;;;;;;5054509;28;20056;-28
2023/05/27 05:47:51;;;;;;;22.25;6.10;;;11.10;99.90;;;;;;5054500;28;20057;-29
2023/05/27 05:50:16;;;;;;;24.48;5.90;;;11.20;99.90;;;;;;5053849;28;20053;-28
2023/05/27 05:52:42;;;;;;;20.80;4.85;;;11.30;99.90;;;;;;5054638;28;20117;-28
2023/05/27 05:55:08;;;;;;;14.38;4.35;;;11.60;99.90;;;;;;5053717;28;20555;-29
2023/05/27 05:57:34;;;;;;;33.25;6.00;;;12.10;99.90;;;;;;5054249;28;20056;-28
2023/05/27 06:00:00;;;;;;;29.95;12.82;;;12.30;99.90;;;;;;5053746;28;20053;-28
2023/05/27 06:02:26;;;;;;;22.70;7.03;;;12.50;99.90;;;;;;5054157;28;20045;-28
2023/05/27 06:04:51;;;;;;;17.77;4.43;;;12.50;99.90;;;;;;5054143;28;20094;-28
2023/05/27 06:07:17;;;;;;;19.20;4.82;;;12.50;65.10;;;;;;5053642;28;20052;-29
2023/05/27 06:09:44;;;;;;;15.32;3.95;;;12.70;12.30;;;;;;5053559;28;20056;-29
2023/05/27 06:12:10;;;;;;;15.77;5.20;;;13.10;1.00;;;;;;5053535;28;20049;-28
2023/05/27 06:14:36;;;;;;;13.02;3.88;;;13.80;1.00;;;;;;5053499;28;20099;-28
2023/05/27 06:17:01;;;;;;;17.92;4.55;;;14.30;1.00;;;;;;5053445;28;20041;-28
2023/05/27 06:19:27;;;;;;;23.17;3.80;;;14.80;99.90;;;;;;5053468;28;20052;-28
2023/05/27 06:21:53;;;;;;;22.10;4.20;;;15.40;31.40;;;;;;5053446;28;20099;-28
2023/05/27 06:24:19;;;;;;;16.90;4.00;;;15.70;99.90;;;;;;5053431;28;20052;-28
2023/05/27 06:26:45;;;;;;;17.70;4.20;;;15.90;1.00;;;;;;5052428;28;20493;-29
2023/05/27 06:29:11;;;;;;;20.73;3.83;;;16.30;99.90;;;;;;5053377;28;20051;-29
2023/05/27 06:31:37;;;;;;;20.42;4.28;;;16.60;99.90;;;;;;5053327;28;20128;-28
2023/05/27 06:34:03;;;;;;;19.35;4.43;;;16.70;99.90;;;;;;5053269;28;20048;-28
2023/05/27 06:36:28;;;;;;;15.52;3.45;;;16.80;99.90;;;;;;5053272;28;20128;-28
2023/05/27 06:38:54;;;;;;;29.65;5.70;;;16.70;99.90;;;;;;5053247;28;20369;-28
2023/05/27 06:41:20;;;;;;;16.50;5.68;;;16.60;99.90;;;;;;5052327;28;20103;-29
2023/05/27 06:43:46;;;;;;;19.00;3.90;;;16.60;1.00;;;;;;5052108;28;20471;-28
2023/05/27 06:46:11;;;;;;;17.20;4.75;;;16.80;1.00;;;;;;5053237;28;20041;-28
2023/05/27 06:48:37;;;;;;;17.05;5.15;;;17.20;1.00;;;;;;5053209;28;20126;-29
2023/05/27 06:51:05;;;;;;;18.67;4.50;;;17.10;99.90;;;;;;5052336;28;20478;-28
2023/05/27 06:53:31;;;;;;;22.27;5.22;;;16.90;1.00;;;;;;5053611;28;20123;-28
2023/05/27 06:55:57;;;;;;;20.40;5.38;;;16.80;1.00;;;;;;5056640;28;20128;-28
2023/05/27 06:58:23;;;;;;;22.05;4.28;;;16.90;99.90;;;;;;5057178;28;20045;-28
2023/05/27 07:00:49;;;;;;;17.70;4.32;;;17.00;99.90;;;;;;5056718;28;20452;-28
2023/05/27 07:03:14;;;;;;;18.77;4.90;;;17.20;99.90;;;;;;5056924;28;20424;-28
2023/05/27 07:05:40;;;;;;;15.68;3.65;;;17.40;99.90;;;;;;5057401;28;20591;-28
2023/05/27 07:08:06;;;;;;;13.57;4.82;;;18.00;99.90;;;;;;5056747;28;20049;-28
2023/05/27 07:10:32;;;;;;;21.05;4.72;;;17.70;1.00;;;;;;5054946;28;20064;-28
2023/05/27 07:12:57;;;;;;;16.42;5.22;;;17.60;70.10;;;;;;5055417;28;20056;-28
2023/05/27 07:15:25;;;;;;;14.32;4.82;;;18.00;71.40;;;;;;5056533;28;20147;-28
2023/05/27 07:17:51;;;;;;;17.42;4.88;;;18.30;1.00;;;;;;5056348;28;20441;-28
2023/05/27 07:20:16;;;;;;;17.67;4.65;;;18.10;1.00;;;;;;5057188;28;20047;-29
2023/05/27 07:22:42;;;;;;;18.58;4.97;;;17.80;1.00;;;;;;5057142;28;20053;-29
2023/05/27 07:25:08;;;;;;;22.50;4.97;;;18.20;1.00;;;;;;5056317;28;20044;-28
2023/05/27 07:27:34;;;;;;;18.60;5.15;;;17.90;1.00;;;;;;5038648;28;20106;-29
2023/05/27 07:30:00;;;;;;;20.70;5.03;;;18.40;1.00;;;;;;5056495;28;20053;-29
2023/05/27 07:32:26;;;;;;;14.38;3.80;;;18.60;1.00;;;;;;5056380;28;20049;-28
2023/05/27 07:34:52;;;;;;;27.75;5.10;;;18.80;99.90;;;;;;5055371;28;20049;-29
2023/05/27 07:37:17;;;;;;;21.15;4.90;;;18.70;99.90;;;;;;5056390;28;20472;-29
2023/05/27 07:39:43;;;;;;;22.83;4.70;;;18.60;99.90;;;;;;5057150;28;20049;-29
2023/05/27 07:42:08;;;;;;;15.02;4.47;;;18.80;99.90;;;;;;5055062;28;20369;-29
2023/05/27 07:44:34;;;;;;;19.98;4.97;;;18.80;99.90;;;;;;5054988;28;20090;-28
2023/05/27 07:47:00;;;;;;;16.27;4.20;;;18.30;99.90;;;;;;5057023;28;20064;-29
2023/05/27 07:49:26;;;;;;;20.83;4.88;;;18.30;99.90;;;;;;5056109;28;20052;-28
2023/05/27 07:51:51;;;;;;;20.35;4.78;;;18.70;99.90;;;;;;5056093;28;20518;-28
2023/05/27 07:54:17;;;;;;;17.73;4.32;;;19.10;99.90;;;;;;5056050;28;20143;-29
2023/05/27 07:56:43;;;;;;;25.27;6.05;;;19.00;99.90;;;;;;5054717;28;20374;-29
2023/05/27 07:59:09;;;;;;;17.10;5.43;;;19.30;99.90;;;;;;5054766;28;20076;-29
2023/05/27 08:01:34;;;;;;;18.65;4.57;;;19.40;99.90;;;;;;5055800;28;20049;-29
2023/05/27 08:04:00;;;;;;;14.38;4.80;;;18.90;99.90;;;;;;5054453;28;20115;-29
2023/05/27 08:06:26;;;;;;;17.77;5.18;;;18.80;99.90;;;;;;5055222;28;20132;-29
2023/05/27 08:08:52;;;;;;;23.33;5.70;;;18.70;99.90;;;;;;5055678;28;20040;-30
2023/05/27 08:11:18;;;;;;;12.93;3.85;;;18.30;99.90;;;;;;5056214;28;20057;-29
2023/05/27 08:13:44;;;;;;;15.23;4.18;;;18.60;99.90;;;;;;5055623;28;20051;-29
2023/05/27 08:16:10;;;;;;;16.00;3.85;;;19.50;99.90;;;;;;5054422;28;20507;-29
2023/05/27 08:18:37;;;;;;;22.90;5.22;;;20.20;99.90;;;;;;5056028;28;20056;-29
2023/05/27 08:21:02;;;;;;;13.02;4.00;;;20.10;1.00;;;;;;5055084;28;20048;-29
2023/05/27 08:23:28;;;;;;;22.17;4.93;;;19.40;1.00;;;;;;5054200;28;20071;-30
2023/05/27 08:25:55;;;;;;;17.08;4.97;;;18.80;69.10;;;;;;5055809;28;20040;-30
2023/05/27 08:28:21;;;;;;;17.55;6.97;;;19.00;99.90;;;;;;5055835;28;20048;-29
2023/05/27 08:30:47;;;;;;;15.85;5.15;;;19.70;99.90;;;;;;5054139;28;20045;-29
2023/05/27 08:33:13;;;;;;;16.20;4.30;;;19.80;18.80;;;;;;5055575;28;20053;-28
2023/05/27 08:35:39;;;;;;;20.42;4.90;;;19.40;1.00;;;;;;5054839;28;20503;-29
2023/05/27 08:38:05;;;;;;;17.38;4.68;;;19.80;30.20;;;;;;5055166;28;20044;-29
2023/05/27 08:40:31;;;;;;;18.02;5.30;;;20.60;1.00;;;;;;5055138;28;20052;-29
2023/05/27 08:42:56;;;;;;;13.35;4.43;;;21.30;1.00;;;;;;5053889;28;20477;-30
2023/05/27 08:45:22;;;;;;;14.45;4.65;;;21.50;1.00;;;;;;5055015;28;20175;-28
2023/05/27 08:47:49;;;;;;;14.30;4.35;;;22.10;1.00;;;;;;5055233;28;20053;-29
2023/05/27 08:50:14;;;;;;;15.60;5.40;;;22.10;99.90;;;;;;5054911;28;20088;-30
2023/05/27 08:52:51;;;;;;;15.63;5.00;;;21.70;99.90;;;;;;5054913;28;20088;-30
2023/05/27 08:55:21;;;;;;;16.92;4.82;;;22.10;99.90;;;;;;5055041;28;20052;-29
2023/05/27 08:57:51;;;;;;;19.85;4.75;;;22.70;99.90;;;;;;5054036;28;20088;-30
2023/05/27 09:00:17;;;;;;;13.93;5.03;;;22.70;99.90;;;;;;5055335;28;20041;-29
2023/05/27 09:02:43;;;;;;;16.27;5.05;;;23.00;99.90;;;;;;5053520;28;20047;-29
2023/05/27 09:05:10;;;;;;;14.13;4.38;;;22.40;99.90;;;;;;5054209;28;20045;-31
2023/05/27 09:07:37;;;;;;;14.00;4.15;;;22.20;99.90;;;;;;5054833;28;20088;-30
2023/05/27 09:10:06;;;;;;;17.60;5.03;;;22.20;99.90;;;;;;5036475;28;20057;-30
2023/05/27 09:12:32;;;;;;;16.23;4.60;;;22.20;99.90;;;;;;5054994;28;20114;-29
2023/05/27 09:14:58;;;;;;;18.33;4.55;;;22.20;99.90;;;;;;5053703;28;20048;-30
2023/05/27 09:17:24;;;;;;;19.58;4.95;;;22.50;99.90;;;;;;5053742;28;20060;-30
2023/05/27 09:19:51;;;;;;;14.98;4.75;;;22.50;99.90;;;;;;5053055;28;20044;-30
2023/05/27 09:22:25;;;;;;;17.25;5.32;;;22.80;99.90;;;;;;5036665;28;20097;-29
2023/05/27 09:24:55;;;;;;;17.17;5.30;;;22.90;99.90;;;;;;5053268;28;20481;-30
2023/05/27 09:27:31;;;;;;;16.45;4.47;;;23.40;99.90;;;;;;5054727;28;20094;-29
2023/05/27 09:29:58;;;;;;;17.42;5.80;;;23.50;99.90;;;;;;5053873;28;20049;-29
2023/05/27 09:32:30;;;;;;;15.50;5.28;;;23.60;99.90;;;;;;5053127;28;20484;-30
2023/05/27 09:34:57;;;;;;;14.68;5.30;;;23.80;99.90;;;;;;5053992;28;20092;-30
2023/05/27 09:37:34;;;;;;;16.67;5.22;;;23.80;99.90;;;;;;5052838;28;20049;-31
2023/05/27 09:40:04;;;;;;;21.40;5.10;;;23.90;99.90;;;;;;5053695;28;20044;-29
2023/05/27 09:42:38;;;;;;;13.50;4.72;;;23.80;99.90;;;;;;5037400;28;20044;-30
2023/05/27 09:45:09;;;;;;;15.93;4.68;;;23.80;99.90;;;;;;5053068;28;20049;-30
2023/05/27 09:47:38;;;;;;;14.48;4.60;;;24.00;99.90;;;;;;5054485;28;20372;-30
2023/05/27 09:50:06;;;;;;;15.98;4.93;;;24.30;99.90;;;;;;5052922;28;20053;-29
2023/05/27 09:52:32;;;;;;;13.95;4.70;;;24.30;99.90;;;;;;5052704;28;20052;-31
2023/05/27 09:54:58;;;;;;;18.00;6.57;;;24.00;99.90;;;;;;5053723;28;20048;-30
2023/05/27 09:57:24;;;;;;;13.40;4.50;;;23.50;99.90;;;;;;5052297;28;20489;-30
2023/05/27 09:59:51;;;;;;;14.02;4.63;;;23.70;99.90;;;;;;5054566;28;20049;-30
2023/05/27 10:02:20;;;;;;;15.15;4.57;;;24.00;99.90;;;;;;5054231;28;20041;-31
2023/05/27 10:04:48;;;;;;;13.85;4.57;;;24.20;99.90;;;;;;5053636;28;20055;-30
2023/05/27 10:07:16;;;;;;;14.50;5.43;;;24.20;99.90;;;;;;5020545;28;20049;-30
2023/05/27 10:09:42;;;;;;;12.63;5.07;;;23.90;99.90;;;;;;5052168;28;20107;-30
2023/05/27 10:12:09;;;;;;;17.25;5.07;;;24.40;99.90;;;;;;5020227;28;20052;-30
2023/05/27 10:14:35;;;;;;;10.85;4.45;;;24.30;99.90;;;;;;5053296;28;20458;-31
2023/05/27 10:17:00;;;;;;;16.55;4.53;;;24.60;99.90;;;;;;5053500;28;20053;-31
2023/05/27 10:19:27;;;;;;;16.70;4.88;;;24.40;99.90;;;;;;5053567;28;20163;-30
2023/05/27 10:21:53;;;;;;;13.65;4.45;;;24.20;99.90;;;;;;5053970;28;20048;-29
2023/05/27 10:24:18;;;;;;;14.88;4.80;;;23.70;99.90;;;;;;5053265;28;20080;-31
2023/05/27 10:26:47;;;;;;;19.55;4.90;;;24.20;99.90;;;;;;5053204;28;20096;-30
2023/05/27 10:29:17;;;;;;;16.73;5.65;;;24.30;99.90;;;;;;5039279;28;20056;-30
2023/05/27 10:31:50;;;;;;;16.77;4.75;;;24.80;99.90;;;;;;5058429;28;20163;-30
2023/05/27 10:34:17;;;;;;;17.13;5.68;;;24.80;99.90;;;;;;5057448;28;20056;-30
2023/05/27 10:36:44;;;;;;;15.27;4.55;;;24.50;99.90;;;;;;5056241;28;20049;-30
2023/05/27 10:39:16;;;;;;;14.25;4.50;;;25.00;99.90;;;;;;5056465;28;20157;-30
2023/05/27 10:41:55;;;;;;;15.00;5.03;;;25.30;99.90;;;;;;5039785;28;20090;-31
2023/05/27 10:44:37;;;;;;;18.45;6.10;;;25.60;99.90;;;;;;5058170;28;20079;-30
2023/05/27 10:47:11;;;;;;;15.82;5.05;;;26.10;99.90;;;;;;5057363;28;20049;-31
2023/05/27 10:49:39;;;;;;;11.68;5.00;;;25.80;99.90;;;;;;5056434;28;20436;-31
2023/05/27 10:52:13;;;;;;;14.43;4.72;;;25.60;99.90;;;;;;5057258;28;20061;-30
2023/05/27 10:54:45;;;;;;;15.00;4.75;;;25.30;99.90;;;;;;5057279;28;20060;-30
2023/05/27 10:57:11;;;;;;;13.90;4.50;;;24.70;99.90;;;;;;5057063;28;20037;-30
2023/05/27 10:59:49;;;;;;;16.95;5.32;;;24.70;99.90;;;;;;5057065;28;20048;-30
2023/05/27 11:02:16;;;;;;;14.10;4.57;;;24.50;99.90;;;;;;5056142;28;20048;-33
2023/05/27 11:04:42;;;;;;;14.88;5.15;;;24.80;99.90;;;;;;5056996;28;20530;-31
2023/05/27 11:07:08;;;;;;;14.73;4.65;;;25.00;99.90;;;;;;5056898;28;20052;-31
2023/05/27 11:09:50;;;;;;;15.05;5.15;;;25.10;99.90;;;;;;5057422;28;20055;-31
2023/05/27 11:12:17;;;;;;;12.52;4.40;;;25.00;99.90;;;;;;5056478;28;20061;-30
2023/05/27 11:14:50;;;;;;;14.25;5.25;;;25.10;99.90;;;;;;5056862;28;20048;-37
2023/05/27 11:17:17;;;;;;;12.32;5.00;;;25.30;99.90;;;;;;5057274;28;20086;-30
2023/05/27 11:19:46;;;;;;;21.48;5.15;;;25.70;99.90;;;;;;5056716;28;20127;-31
2023/05/27 11:22:14;;;;;;;11.07;4.13;;;25.40;99.90;;;;;;5056076;28;20045;-31
2023/05/27 11:24:40;;;;;;;15.45;4.20;;;25.30;99.90;;;;;;5056609;28;20088;-31
2023/05/27 11:27:10;;;;;;;14.75;4.43;;;25.40;99.90;;;;;;5056536;28;20052;-31
2023/05/27 11:29:37;;;;;;;17.00;4.90;;;25.50;99.90;;;;;;5056205;28;20604;-30
2023/05/27 11:32:05;;;;;;;12.35;4.07;;;25.50;99.90;;;;;;5056411;28;20041;-30
2023/05/27 11:34:34;;;;;;;11.23;4.90;;;25.50;99.90;;;;;;5039393;28;20049;-31
2023/05/27 11:37:04;;;;;;;13.45;4.25;;;25.60;99.90;;;;;;5056583;28;20431;-31
2023/05/27 11:39:30;;;;;;;14.30;4.93;;;25.70;99.90;;;;;;5054411;28;20045;-31
2023/05/27 11:41:56;;;;;;;13.95;4.45;;;25.60;99.90;;;;;;5038935;28;20059;-30
2023/05/27 11:44:23;;;;;;;13.48;4.40;;;25.50;99.90;;;;;;5055241;28;20044;-30
2023/05/27 11:46:51;;;;;;;11.30;3.90;;;25.50;99.90;;;;;;5054979;28;20045;-30
2023/05/27 11:49:18;;;;;;;15.85;5.00;;;25.60;99.90;;;;;;5054770;28;20071;-30
2023/05/27 11:51:46;;;;;;;16.65;6.43;;;25.80;99.90;;;;;;5056152;28;20056;-30
2023/05/27 11:54:21;;;;;;;16.83;5.40;;;26.20;99.90;;;;;;5056062;28;20067;-31
2023/05/27 11:56:48;;;;;;;15.52;5.13;;;26.30;99.90;;;;;;5056235;28;20095;-31
2023/05/27 11:59:14;;;;;;;16.13;4.82;;;26.10;99.90;;;;;;5055924;28;20055;-31
2023/05/27 12:01:41;;;;;;;14.27;5.25;;;26.40;99.90;;;;;;5055929;28;20052;-30
2023/05/27 12:04:07;;;;;;;14.90;6.00;;;25.80;99.90;;;;;;5021798;28;20086;-31
2023/05/27 12:06:33;;;;;;;12.13;5.65;;;25.40;99.90;;;;;;5054850;28;20048;-31
2023/05/27 12:08:58;;;;;;;12.35;4.75;;;25.20;99.90;;;;;;5054514;28;20044;-31
2023/05/27 12:11:24;;;;;;;11.80;4.32;;;25.90;99.90;;;;;;5054837;28;20060;-31
2023/05/27 12:13:53;;;;;;;14.00;5.28;;;26.30;99.90;;;;;;5056471;28;20463;-31
2023/05/27 12:16:18;;;;;;;12.07;4.50;;;26.40;99.90;;;;;;5055532;28;20045;-30
2023/05/27 12:18:45;;;;;;;12.95;4.80;;;26.60;99.90;;;;;;5054858;28;20060;-31
2023/05/27 12:21:11;;;;;;;14.35;5.57;;;26.50;99.90;;;;;;5054342;28;20503;-30
2023/05/27 12:23:37;;;;;;;13.98;5.18;;;26.80;99.90;;;;;;5055465;28;20052;-31
2023/05/27 12:26:03;;;;;;;15.52;5.03;;;26.80;99.90;;;;;;5055506;28;20037;-31
2023/05/27 12:28:28;;;;;;;15.75;5.50;;;26.80;99.90;;;;;;5055615;28;20060;-32
2023/05/27 12:30:55;;;;;;;19.10;5.82;;;26.70;99.90;;;;;;5055605;28;20084;-31
2023/05/27 12:33:20;;;;;;;13.32;4.63;;;26.80;99.90;;;;;;5055275;28;20052;-31
2023/05/27 12:35:46;;;;;;;13.23;4.97;;;26.90;99.90;;;;;;5055170;28;20049;-31
2023/05/27 12:38:12;;;;;;;13.10;5.22;;;27.00;99.90;;;;;;5054032;28;20045;-31
2023/05/27 12:40:38;;;;;;;13.38;5.00;;;27.00;99.90;;;;;;5054860;28;20052;-31
2023/05/27 12:43:03;;;;;;;15.95;5.28;;;27.40;99.90;;;;;;5055138;28;20049;-31